createdAt,value
2023-05-23T00:00:24.350Z,98866.32
2023-05-23T00:02:53.100Z,98861.06
2023-05-23T00:05:20.837Z,98861.80
2023-05-23T00:07:48.369Z,98857.84
2023-05-23T00:10:16.050Z,98853.98
2023-05-23T00:12:43.596Z,98853.04
2023-05-23T00:15:11.287Z,98849.14
2023-05-23T00:17:39.827Z,98849.20
2023-05-23T00:20:09.935Z,98847.36
2023-05-23T00:22:43.335Z,98844.73
2023-05-23T00:25:11.552Z,98849.68
2023-05-23T00:27:39.622Z,98843.36
2023-05-23T00:30:08.155Z,98842.98
2023-05-23T00:32:36.049Z,98838.68
2023-05-23T00:35:04.175Z,98831.66
2023-05-23T00:37:32.558Z,98832.40
2023-05-23T00:40:00.987Z,98828.92
2023-05-23T00:42:29.037Z,98822.44
2023-05-23T00:44:57.092Z,98822.08
2023-05-23T00:47:25.194Z,98820.50
2023-05-23T00:49:53.027Z,98822.77
2023-05-23T00:52:20.968Z,98821.33
2023-05-23T00:54:48.936Z,98817.69
2023-05-23T00:57:17.144Z,98820.11
2023-05-23T00:59:47.072Z,98819.62
2023-05-23T01:02:15.649Z,98821.16
2023-05-23T01:04:43.571Z,98815.77
2023-05-23T01:07:12.554Z,98817.48
2023-05-23T01:09:40.582Z,98817.75
2023-05-23T01:12:26.037Z,98823.41
2023-05-23T01:15:06.761Z,98822.27
2023-05-23T01:17:49.239Z,98821.73
2023-05-23T01:20:47.422Z,98816.15
2023-05-23T01:23:21.348Z,98814.75
2023-05-23T01:25:59.512Z,98810.69
2023-05-23T01:28:32.264Z,98811.70
2023-05-23T01:31:01.113Z,98813.19
2023-05-23T01:33:28.636Z,98814.77
2023-05-23T01:35:56.875Z,98818.59
2023-05-23T01:38:24.856Z,98820.48
2023-05-23T01:40:53.742Z,98820.69
2023-05-23T01:43:21.998Z,98815.19
2023-05-23T01:45:54.169Z,98815.20
2023-05-23T01:48:22.106Z,98816.55
2023-05-23T01:50:50.063Z,98816.62
2023-05-23T01:53:21.368Z,98823.18
2023-05-23T01:55:49.540Z,98823.15
2023-05-23T01:58:17.177Z,98825.39
2023-05-23T02:00:44.769Z,98831.33
2023-05-23T02:03:12.894Z,98832.46
2023-05-23T02:05:40.900Z,98831.24
2023-05-23T02:08:09.116Z,98828.78
2023-05-23T02:10:39.117Z,98828.90
2023-05-23T02:13:07.024Z,98831.96
2023-05-23T02:15:34.839Z,98834.36
2023-05-23T02:18:03.566Z,98829.98
2023-05-23T02:20:32.260Z,98826.69
2023-05-23T02:23:00.257Z,98824.70
2023-05-23T02:25:28.163Z,98819.46
2023-05-23T02:27:56.107Z,98817.92
2023-05-23T02:30:23.994Z,98814.48
2023-05-23T02:32:51.940Z,98816.37
2023-05-23T02:35:19.856Z,98811.88
2023-05-23T02:37:47.732Z,98817.45
2023-05-23T02:40:16.593Z,98813.77
2023-05-23T02:42:44.539Z,98813.83
2023-05-23T02:45:12.364Z,98810.51
2023-05-23T02:47:40.539Z,98811.11
2023-05-23T02:50:10.992Z,98811.27
2023-05-23T02:52:39.030Z,98811.23
2023-05-23T02:55:07.355Z,98810.55
2023-05-23T02:57:39.360Z,98810.61
2023-05-23T03:00:09.819Z,98806.83
2023-05-23T03:02:37.429Z,98802.65
2023-05-23T03:05:06.536Z,98800.27
2023-05-23T03:07:34.578Z,98798.92
2023-05-23T03:10:02.742Z,98802.08
2023-05-23T03:12:31.018Z,98802.51
2023-05-23T03:14:58.935Z,98804.66
2023-05-23T03:17:26.686Z,98803.43
2023-05-23T03:19:54.606Z,98804.61
2023-05-23T03:22:22.637Z,98802.57
2023-05-23T03:24:50.654Z,98801.66
2023-05-23T03:27:18.684Z,98802.27
2023-05-23T03:29:48.381Z,98799.29
2023-05-23T03:32:16.296Z,98798.60
2023-05-23T03:34:44.534Z,98796.20
2023-05-23T03:37:12.794Z,98793.96
2023-05-23T03:39:40.612Z,98780.48
2023-05-23T03:42:08.851Z,98781.23
2023-05-23T03:44:37.044Z,98777.27
2023-05-23T03:47:07.143Z,98772.95
2023-05-23T03:49:35.968Z,98771.96
2023-05-23T03:52:04.505Z,98770.42
2023-05-23T03:54:32.958Z,98770.30
2023-05-23T03:57:05.037Z,98774.30
2023-05-23T03:59:32.573Z,98768.59
2023-05-23T04:02:01.499Z,98765.09
2023-05-23T04:04:29.793Z,98750.90
2023-05-23T04:06:58.524Z,98743.44
2023-05-23T04:09:26.341Z,98738.44
2023-05-23T04:11:54.465Z,98733.79
2023-05-23T04:14:24.405Z,98726.72
2023-05-23T04:16:52.650Z,98718.38
2023-05-23T04:19:20.375Z,98710.84
2023-05-23T04:21:47.896Z,98706.73
2023-05-23T04:24:17.798Z,98701.03
2023-05-23T04:26:45.444Z,98693.70
2023-05-23T04:29:13.396Z,98683.00
2023-05-23T04:31:42.203Z,98675.52
2023-05-23T04:34:11.809Z,98669.75
2023-05-23T04:36:40.496Z,98658.21
2023-05-23T04:39:30.087Z,98654.64
2023-05-23T04:42:18.166Z,98646.83
2023-05-23T04:45:07.520Z,98641.91
2023-05-23T04:47:56.818Z,98636.45
2023-05-23T04:50:38.439Z,98627.86
2023-05-23T04:53:07.445Z,98625.98
2023-05-23T04:55:37.126Z,98625.52
2023-05-23T04:58:06.156Z,98625.92
2023-05-23T05:00:36.279Z,98624.59
2023-05-23T05:03:05.092Z,98620.63
2023-05-23T05:05:34.035Z,98618.92
2023-05-23T05:08:02.039Z,98616.62
2023-05-23T05:10:30.208Z,98609.66
2023-05-23T05:12:58.640Z,98610.08
2023-05-23T05:15:30.091Z,98607.17
2023-05-23T05:17:59.930Z,98605.06
2023-05-23T05:20:28.280Z,98605.34
2023-05-23T05:22:58.433Z,98604.69
2023-05-23T05:25:27.937Z,98609.34
2023-05-23T05:27:56.280Z,98608.42
2023-05-23T05:30:25.069Z,98610.50
2023-05-23T05:32:59.788Z,98612.33
2023-05-23T05:35:28.321Z,98613.72
2023-05-23T05:37:56.575Z,98615.63
2023-05-23T05:40:25.114Z,98616.86
2023-05-23T05:42:53.161Z,98618.58
2023-05-23T05:45:24.460Z,98619.27
2023-05-23T05:47:52.765Z,98620.13
2023-05-23T05:50:22.957Z,98615.63
2023-05-23T05:52:51.439Z,98615.56
2023-05-23T05:55:19.418Z,98619.13
2023-05-23T05:57:51.765Z,98619.02
2023-05-23T06:00:20.899Z,98623.16
2023-05-23T06:02:58.019Z,98630.48
2023-05-23T06:05:39.751Z,98635.16
2023-05-23T06:08:07.886Z,98637.02
2023-05-23T06:10:38.061Z,98636.52
2023-05-23T06:13:06.167Z,98629.75
2023-05-23T06:15:34.304Z,98630.91
2023-05-23T06:18:02.517Z,98630.30
2023-05-23T06:20:31.643Z,98634.07
2023-05-23T06:23:02.108Z,98640.85
2023-05-23T06:25:30.173Z,98641.41
2023-05-23T06:27:58.108Z,98643.64
2023-05-23T06:30:26.217Z,98647.18
2023-05-23T06:32:54.111Z,98647.42
2023-05-23T06:35:22.436Z,98650.23
2023-05-23T06:37:50.630Z,98657.86
2023-05-23T06:40:19.477Z,98659.12
2023-05-23T06:42:48.093Z,98661.65
2023-05-23T06:45:39.256Z,98662.33
2023-05-23T06:48:07.263Z,98661.95
2023-05-23T06:50:36.986Z,98669.36
2023-05-23T06:53:05.246Z,98672.88
2023-05-23T06:55:34.344Z,98675.91
2023-05-23T06:58:04.685Z,98672.33
2023-05-23T07:00:33.935Z,98671.64
2023-05-23T07:03:18.909Z,98673.54
2023-05-23T07:05:47.000Z,98673.80
2023-05-23T07:08:16.400Z,98672.47
2023-05-23T07:10:54.598Z,98666.03
2023-05-23T07:13:29.323Z,98665.64
2023-05-23T07:15:57.699Z,98663.52
2023-05-23T07:18:25.866Z,98659.54
2023-05-23T07:20:54.102Z,98662.43
2023-05-23T07:23:24.109Z,98667.91
2023-05-23T07:26:01.837Z,98666.67
2023-05-23T07:28:38.145Z,98668.27
2023-05-23T07:31:08.600Z,98667.41
2023-05-23T07:33:36.634Z,98664.25
2023-05-23T07:36:05.514Z,98660.02
2023-05-23T07:38:33.466Z,98668.85
2023-05-23T07:41:11.003Z,98661.92
2023-05-23T07:43:40.542Z,98673.01
2023-05-23T07:46:08.825Z,98670.17
2023-05-23T07:48:37.305Z,98678.86
2023-05-23T07:51:05.514Z,98681.20
2023-05-23T07:53:34.106Z,98684.36
2023-05-23T07:56:04.483Z,98685.45
2023-05-23T07:58:36.580Z,98689.45
2023-05-23T08:01:04.647Z,98688.67
2023-05-23T08:04:05.296Z,98700.28
2023-05-23T08:06:48.412Z,98700.10
2023-05-23T08:09:24.809Z,98697.27
2023-05-23T08:11:54.680Z,98701.64
2023-05-23T08:14:25.959Z,98706.95
2023-05-23T08:17:18.772Z,98703.77
2023-05-23T08:19:47.850Z,98701.15
2023-05-23T08:22:15.987Z,98703.25
2023-05-23T08:24:44.114Z,98706.58
2023-05-23T08:27:12.316Z,98708.52
2023-05-23T08:29:41.495Z,98712.39
2023-05-23T08:32:09.802Z,98711.38
2023-05-23T08:34:37.851Z,98713.93
2023-05-23T08:37:06.588Z,98714.73
2023-05-23T08:39:34.751Z,98712.66
2023-05-23T08:42:25.167Z,98711.77
2023-05-23T08:44:52.790Z,98710.55
2023-05-23T08:47:20.487Z,98707.10
2023-05-23T08:50:02.289Z,98705.13
2023-05-23T08:52:30.892Z,98696.84
2023-05-23T08:55:01.230Z,98694.13
2023-05-23T08:57:31.099Z,98690.00
2023-05-23T09:00:10.776Z,98682.05
2023-05-23T09:02:39.700Z,98677.70
2023-05-23T09:05:18.990Z,98681.18
2023-05-23T09:07:51.978Z,98676.33
2023-05-23T09:10:22.956Z,98675.36
2023-05-23T09:12:51.336Z,98667.55
2023-05-23T09:15:19.832Z,98667.10
2023-05-23T09:17:48.212Z,98661.75
2023-05-23T09:20:17.073Z,98662.43
2023-05-23T09:22:50.779Z,98657.67
2023-05-23T09:25:19.355Z,98654.09
2023-05-23T09:27:48.292Z,98655.66
2023-05-23T09:30:17.232Z,98656.07
2023-05-23T09:33:02.817Z,98657.98
2023-05-23T09:35:32.174Z,98657.57
2023-05-23T09:38:00.789Z,98660.55
2023-05-23T09:40:30.232Z,98665.39
2023-05-23T09:43:04.645Z,98663.36
2023-05-23T09:45:33.194Z,98662.70
2023-05-23T09:48:02.734Z,98662.81
2023-05-23T09:50:36.176Z,98664.77
2023-05-23T09:53:05.553Z,98662.60
2023-05-23T09:55:33.485Z,98656.81
2023-05-23T09:58:02.565Z,98653.59
2023-05-23T10:00:31.646Z,98651.50
2023-05-23T10:03:14.372Z,98646.84
2023-05-23T10:05:51.551Z,98644.42
2023-05-23T10:08:32.792Z,98647.83
2023-05-23T10:11:17.488Z,98649.96
2023-05-23T10:14:11.691Z,98649.35
2023-05-23T10:17:02.857Z,98650.16
2023-05-23T10:19:55.018Z,98648.73
2023-05-23T10:22:23.046Z,98648.05
2023-05-23T10:24:51.373Z,98645.73
2023-05-23T10:27:19.490Z,98643.52
2023-05-23T10:29:47.695Z,98642.73
2023-05-23T10:32:16.858Z,98644.79
2023-05-23T10:35:02.450Z,98643.63
2023-05-23T10:37:41.184Z,98643.21
2023-05-23T10:40:12.418Z,98646.19
2023-05-23T10:42:58.593Z,98658.69
2023-05-23T10:45:26.584Z,98670.74
2023-05-23T10:47:54.997Z,98675.52
2023-05-23T10:50:37.514Z,98674.89
2023-05-23T10:53:06.037Z,98681.73
2023-05-23T10:55:37.040Z,98681.52
2023-05-23T10:58:32.233Z,98684.73
2023-05-23T11:01:07.883Z,98687.19
2023-05-23T11:03:37.186Z,98685.69
2023-05-23T11:06:06.479Z,98681.31
2023-05-23T11:08:47.699Z,98675.89
2023-05-23T11:11:16.883Z,98676.48
2023-05-23T11:14:15.283Z,98676.16
2023-05-23T11:16:44.126Z,98681.35
2023-05-23T11:19:18.467Z,98692.80
2023-05-23T11:22:10.892Z,98697.31
2023-05-23T11:24:53.055Z,98704.20
2023-05-23T11:27:54.782Z,98709.91
2023-05-23T11:30:26.608Z,98714.38
2023-05-23T11:32:56.223Z,98714.01
2023-05-23T11:35:24.422Z,98720.96
2023-05-23T11:37:52.592Z,98740.40
2023-05-23T11:40:33.951Z,98757.95
2023-05-23T11:43:03.191Z,98790.04
2023-05-23T11:45:34.335Z,98824.08
2023-05-23T11:48:09.800Z,98856.58
2023-05-23T11:50:53.697Z,98873.41
2023-05-23T11:53:26.779Z,98896.87
2023-05-23T11:55:56.063Z,98917.23
2023-05-23T11:58:29.842Z,98923.65
2023-05-23T12:01:04.551Z,98925.14
2023-05-23T12:03:56.464Z,98924.27
2023-05-23T12:06:25.313Z,98927.06
2023-05-23T12:08:54.237Z,98925.94
2023-05-23T12:11:31.281Z,98920.83
2023-05-23T12:14:02.101Z,98921.38
2023-05-23T12:16:30.160Z,98913.52
2023-05-23T12:18:59.307Z,98902.41
2023-05-23T12:21:27.451Z,98897.45
2023-05-23T12:23:57.257Z,98897.26
2023-05-23T12:26:25.189Z,98899.57
2023-05-23T12:29:03.513Z,98894.98
2023-05-23T12:31:33.441Z,98894.36
2023-05-23T12:34:02.135Z,98890.66
2023-05-23T12:36:32.604Z,98891.52
2023-05-23T12:39:04.932Z,98893.09
2023-05-23T12:41:36.606Z,98889.64
2023-05-23T12:44:05.059Z,98893.64
2023-05-23T12:46:33.206Z,98895.91
2023-05-23T12:49:01.172Z,98899.20
2023-05-23T12:51:30.253Z,98894.77
2023-05-23T12:53:58.384Z,98895.94
2023-05-23T12:56:46.630Z,98894.46
2023-05-23T12:59:14.930Z,98889.59
2023-05-23T13:01:43.253Z,98886.77
2023-05-23T13:04:11.361Z,98884.73
2023-05-23T13:07:04.748Z,98882.08
2023-05-23T13:09:33.235Z,98877.80
2023-05-23T13:12:01.187Z,98870.52
2023-05-23T13:14:29.202Z,98864.61
2023-05-23T13:16:58.057Z,98859.55
2023-05-23T13:19:26.648Z,98859.78
2023-05-23T13:21:54.843Z,98864.27
2023-05-23T13:24:22.849Z,98873.20
2023-05-23T13:26:51.242Z,98878.50
2023-05-23T13:29:19.404Z,98883.45
2023-05-23T13:31:47.704Z,98880.71
2023-05-23T13:34:16.433Z,98881.61
2023-05-23T13:36:44.605Z,98881.45
2023-05-23T13:39:13.416Z,98879.80
2023-05-23T13:41:50.326Z,98876.45
2023-05-23T13:44:18.344Z,98874.63
2023-05-23T13:46:46.889Z,98871.45
2023-05-23T13:49:14.918Z,98867.94
2023-05-23T13:51:43.857Z,98869.48
2023-05-23T13:54:13.540Z,98867.16
2023-05-23T13:56:41.965Z,98865.88
2023-05-23T13:59:10.090Z,98859.27
2023-05-23T14:01:39.417Z,98849.92
2023-05-23T14:04:07.591Z,98844.71
2023-05-23T14:06:36.877Z,98844.92
2023-05-23T14:09:05.740Z,98843.45
2023-05-23T14:11:33.655Z,98844.73
2023-05-23T14:14:01.975Z,98843.98
2023-05-23T14:16:31.971Z,98839.31
2023-05-23T14:19:00.267Z,98839.70
2023-05-23T14:21:33.012Z,98849.01
2023-05-23T14:24:03.244Z,98854.30
2023-05-23T14:26:32.310Z,98857.13
2023-05-23T14:29:00.880Z,98861.15
2023-05-23T14:31:28.957Z,98856.33
2023-05-23T14:33:57.687Z,98851.52
2023-05-23T14:36:26.601Z,98847.39
2023-05-23T14:38:54.843Z,98843.14
2023-05-23T14:41:23.914Z,98844.34
2023-05-23T14:43:51.996Z,98842.57
2023-05-23T14:46:19.959Z,98837.11
2023-05-23T14:48:47.967Z,98834.77
2023-05-23T14:51:35.450Z,98837.44
2023-05-23T14:54:09.866Z,98841.45
2023-05-23T14:56:38.134Z,98846.65
2023-05-23T14:59:07.235Z,98846.48
2023-05-23T15:02:03.520Z,98844.77
2023-05-23T15:04:32.941Z,98846.54
2023-05-23T15:07:01.290Z,98847.30
2023-05-23T15:09:31.334Z,98856.59
2023-05-23T15:11:59.981Z,98859.65
2023-05-23T15:14:30.032Z,98861.23
2023-05-23T15:16:59.436Z,98857.11
2023-05-23T15:19:29.404Z,98854.71
2023-05-23T15:21:57.678Z,98848.26
2023-05-23T15:24:28.444Z,98844.31
2023-05-23T15:27:08.206Z,98838.89
2023-05-23T15:29:46.167Z,98840.31
2023-05-23T15:32:36.788Z,98832.93
2023-05-23T15:35:07.438Z,98830.04
2023-05-23T15:37:35.653Z,98833.55
2023-05-23T15:40:08.948Z,98830.90
2023-05-23T15:42:39.130Z,98824.60
2023-05-23T15:45:08.275Z,98823.93
2023-05-23T15:47:36.753Z,98816.92
2023-05-23T15:50:06.007Z,98817.14
2023-05-23T15:52:34.141Z,98821.94
2023-05-23T15:55:05.875Z,98825.59
2023-05-23T15:57:37.111Z,98822.36
2023-05-23T16:00:06.394Z,98820.02
2023-05-23T16:02:39.665Z,98818.89
2023-05-23T16:05:09.819Z,98818.10
2023-05-23T16:08:09.598Z,98811.81
2023-05-23T16:10:37.574Z,98808.48
2023-05-23T16:13:06.168Z,98802.96
2023-05-23T16:15:34.336Z,98801.70
2023-05-23T16:18:03.839Z,98796.09
2023-05-23T16:20:43.657Z,98795.55
2023-05-23T16:23:11.794Z,98794.86
2023-05-23T16:25:40.197Z,98790.58
2023-05-23T16:28:08.658Z,98788.74
2023-05-23T16:30:36.862Z,98788.20
2023-05-23T16:33:05.867Z,98786.27
2023-05-23T16:35:34.028Z,98785.89
2023-05-23T16:38:02.310Z,98786.41
2023-05-23T16:40:30.276Z,98790.27
2023-05-23T16:43:05.455Z,98786.08
2023-05-23T16:45:33.277Z,98785.66
2023-05-23T16:48:02.765Z,98784.59
2023-05-23T16:50:30.769Z,98778.40
2023-05-23T16:52:58.855Z,98772.75
2023-05-23T16:55:27.043Z,98772.85
2023-05-23T16:58:02.599Z,98768.04
2023-05-23T17:00:30.513Z,98767.29
2023-05-23T17:02:58.640Z,98764.90
2023-05-23T17:05:27.972Z,98759.42
2023-05-23T17:07:56.892Z,98755.74
2023-05-23T17:10:24.845Z,98754.84
2023-05-23T17:12:52.848Z,98753.20
2023-05-23T17:15:21.182Z,98752.48
2023-05-23T17:17:49.367Z,98759.40
2023-05-23T17:20:17.524Z,98761.89
2023-05-23T17:22:46.928Z,98759.44
2023-05-23T17:25:15.135Z,98758.77
2023-05-23T17:27:43.091Z,98755.16
2023-05-23T17:30:18.671Z,98756.57
2023-05-23T17:32:50.297Z,98757.58
2023-05-23T17:35:19.002Z,98761.33
2023-05-23T17:37:47.542Z,98761.50
2023-05-23T17:40:16.149Z,98762.64
2023-05-23T17:42:45.202Z,98760.34
2023-05-23T17:45:13.491Z,98759.53
2023-05-23T17:47:42.004Z,98757.06
2023-05-23T17:50:12.397Z,98760.70
2023-05-23T17:52:40.816Z,98769.69
2023-05-23T17:55:10.096Z,98774.55
2023-05-23T17:57:38.252Z,98776.40
2023-05-23T18:00:08.643Z,98774.73
2023-05-23T18:02:42.843Z,98771.36
2023-05-23T18:05:11.781Z,98775.08
2023-05-23T18:07:39.963Z,98777.09
2023-05-23T18:10:09.548Z,98780.75
2023-05-23T18:12:37.950Z,98777.65
2023-05-23T18:15:07.715Z,98776.06
2023-05-23T18:17:36.620Z,98774.46
2023-05-23T18:20:07.015Z,98775.36
2023-05-23T18:22:35.304Z,98777.90
2023-05-23T18:25:04.099Z,98781.35
2023-05-23T18:27:31.935Z,98780.35
2023-05-23T18:29:59.967Z,98775.49
2023-05-23T18:32:28.019Z,98765.09
2023-05-23T18:34:56.253Z,98759.90
2023-05-23T18:37:24.385Z,98763.02
2023-05-23T18:39:52.976Z,98760.73
2023-05-23T18:42:21.275Z,98758.34
2023-05-23T18:44:49.523Z,98752.91
2023-05-23T18:47:20.920Z,98749.67
2023-05-23T18:49:50.288Z,98746.20
2023-05-23T18:52:18.627Z,98741.51
2023-05-23T18:54:48.282Z,98741.95
2023-05-23T18:57:17.694Z,98741.47
2023-05-23T18:59:45.568Z,98738.54
2023-05-23T19:02:14.363Z,98733.64
2023-05-23T19:04:42.796Z,98728.88
2023-05-23T19:07:12.935Z,98729.08
2023-05-23T19:09:41.118Z,98730.52
2023-05-23T19:12:29.334Z,98728.91
2023-05-23T19:14:58.974Z,98724.70
2023-05-23T19:17:27.043Z,98720.98
2023-05-23T19:19:55.592Z,98715.48
2023-05-23T19:22:24.277Z,98714.93
2023-05-23T19:24:52.661Z,98715.15
2023-05-23T19:27:20.930Z,98712.42
2023-05-23T19:29:50.026Z,98709.66
2023-05-23T19:32:18.528Z,98713.67
2023-05-23T19:34:46.837Z,98709.38
2023-05-23T19:37:15.272Z,98706.43
2023-05-23T19:39:46.097Z,98704.91
2023-05-23T19:42:14.375Z,98694.23
2023-05-23T19:44:42.809Z,98694.57
2023-05-23T19:47:11.959Z,98692.64
2023-05-23T19:49:40.123Z,98690.23
2023-05-23T19:52:08.399Z,98687.12
2023-05-23T19:54:36.621Z,98687.20
2023-05-23T19:57:05.775Z,98681.37
2023-05-23T19:59:34.054Z,98671.02
2023-05-23T20:02:02.534Z,98667.05
2023-05-23T20:04:30.700Z,98658.64
2023-05-23T20:06:59.181Z,98655.46
2023-05-23T20:09:27.898Z,98651.46
2023-05-23T20:11:56.247Z,98648.41
2023-05-23T20:14:24.423Z,98641.22
2023-05-23T20:16:54.137Z,98640.08
2023-05-23T20:19:22.219Z,98633.39
2023-05-23T20:21:50.377Z,98628.52
2023-05-23T20:24:18.455Z,98631.59
2023-05-23T20:26:46.893Z,98625.34
2023-05-23T20:29:15.228Z,98619.79
2023-05-23T20:31:43.536Z,98615.00
2023-05-23T20:34:11.913Z,98612.80
2023-05-23T20:36:40.293Z,98609.48
2023-05-23T20:39:09.986Z,98608.47
2023-05-23T20:41:41.807Z,98602.71
2023-05-23T20:44:12.543Z,98600.40
2023-05-23T20:46:44.014Z,98600.66
2023-05-23T20:49:12.223Z,98589.99
2023-05-23T20:51:40.438Z,98587.26
2023-05-23T20:54:09.902Z,98583.29
2023-05-23T20:56:38.219Z,98583.73
2023-05-23T20:59:06.436Z,98580.98
2023-05-23T21:01:35.067Z,98579.91
2023-05-23T21:04:03.966Z,98577.84
2023-05-23T21:06:33.061Z,98576.81
2023-05-23T21:09:01.233Z,98577.98
2023-05-23T21:11:29.407Z,98574.11
2023-05-23T21:13:59.014Z,98577.10
2023-05-23T21:16:27.321Z,98575.11
2023-05-23T21:18:55.614Z,98575.69
2023-05-23T21:21:24.155Z,98578.25
2023-05-23T21:23:52.426Z,98574.38
2023-05-23T21:26:20.805Z,98572.09
2023-05-23T21:28:49.103Z,98571.22
2023-05-23T21:31:23.973Z,98566.67
2023-05-23T21:33:54.841Z,98565.83
2023-05-23T21:36:22.816Z,98561.45
2023-05-23T21:38:51.095Z,98562.71
2023-05-23T21:41:19.689Z,98562.20
2023-05-23T21:43:47.782Z,98558.02
2023-05-23T21:46:16.070Z,98559.84
2023-05-23T21:48:44.098Z,98558.89
2023-05-23T21:51:12.794Z,98557.71
2023-05-23T21:53:41.468Z,98558.25
2023-05-23T21:56:09.644Z,98556.83
2023-05-23T21:58:37.712Z,98557.89
2023-05-23T22:01:06.399Z,98559.77
2023-05-23T22:03:34.609Z,98558.90
2023-05-23T22:06:02.994Z,98552.36
2023-05-23T22:08:33.715Z,98553.64
2023-05-23T22:11:02.909Z,98553.48
2023-05-23T22:13:31.679Z,98554.63
2023-05-23T22:15:59.830Z,98551.59
2023-05-23T22:18:30.580Z,98546.45
2023-05-23T22:21:04.378Z,98543.09
2023-05-23T22:23:32.763Z,98542.52
2023-05-23T22:26:01.453Z,98544.23
2023-05-23T22:28:29.516Z,98545.19
2023-05-23T22:30:59.224Z,98542.16
2023-05-23T22:33:27.604Z,98545.05
2023-05-23T22:35:56.193Z,98541.97
2023-05-23T22:38:24.258Z,98541.96
2023-05-23T22:40:55.715Z,98539.29
2023-05-23T22:43:24.175Z,98538.20
2023-05-23T22:45:52.809Z,98534.14
2023-05-23T22:48:20.927Z,98536.09
2023-05-23T22:50:49.015Z,98534.17
2023-05-23T22:53:17.127Z,98528.73
2023-05-23T22:55:45.212Z,98526.42
2023-05-23T22:58:14.161Z,98520.59
2023-05-23T23:00:43.858Z,98517.80
2023-05-23T23:03:12.481Z,98516.09
2023-05-23T23:05:41.131Z,98514.92
2023-05-23T23:08:09.241Z,98512.14
2023-05-23T23:10:37.373Z,98511.08
2023-05-23T23:13:05.560Z,98511.37
2023-05-23T23:15:34.158Z,98510.90
2023-05-23T23:18:02.462Z,98509.60
2023-05-23T23:20:30.921Z,98509.50
2023-05-23T23:22:59.317Z,98506.38
2023-05-23T23:25:27.543Z,98497.80
2023-05-23T23:27:55.831Z,98500.26
2023-05-23T23:30:23.888Z,98500.14
2023-05-23T23:32:52.841Z,98498.91
2023-05-23T23:35:20.745Z,98496.73
2023-05-23T23:37:49.022Z,98500.71
2023-05-23T23:40:17.296Z,98497.13
2023-05-23T23:42:45.612Z,98495.33
2023-05-23T23:45:13.957Z,98496.15
2023-05-23T23:47:43.135Z,98494.50
2023-05-23T23:50:13.904Z,98491.91
2023-05-23T23:52:42.164Z,98493.46
2023-05-23T23:55:10.433Z,98494.40
2023-05-23T23:57:38.715Z,98489.59
